sensor_id;sensor_type;location;lat;lon;timestamp;temperature;humidity
19039;DHT22;9652;49.014;12.052;2022-11-18T00:02:13;12.00;77.80
19039;DHT22;9652;49.014;12.052;2022-11-18T00:04:40;12.00;77.90
19039;DHT22;9652;49.014;12.052;2022-11-18T00:07:07;12.00;77.90
19039;DHT22;9652;49.014;12.052;2022-11-18T00:09:34;12.00;77.90
19039;DHT22;9652;49.014;12.052;2022-11-18T00:12:01;12.00;77.90
19039;DHT22;9652;49.014;12.052;2022-11-18T00:14:46;12.00;77.90
19039;DHT22;9652;49.014;12.052;2022-11-18T00:17:15;12.00;78.00
19039;DHT22;9652;49.014;12.052;2022-11-18T00:19:42;12.00;77.90
19039;DHT22;9652;49.014;12.052;2022-11-18T00:22:11;12.00;77.90
19039;DHT22;9652;49.014;12.052;2022-11-18T00:24:39;12.00;77.90
19039;DHT22;9652;49.014;12.052;2022-11-18T00:27:06;12.00;77.90
19039;DHT22;9652;49.014;12.052;2022-11-18T00:29:33;12.10;78.00
19039;DHT22;9652;49.014;12.052;2022-11-18T00:32:00;12.00;77.90
19039;DHT22;9652;49.014;12.052;2022-11-18T00:34:29;12.00;77.90
19039;DHT22;9652;49.014;12.052;2022-11-18T00:36:56;12.10;77.90
19039;DHT22;9652;49.014;12.052;2022-11-18T00:39:23;12.00;77.70
19039;DHT22;9652;49.014;12.052;2022-11-18T00:41:50;12.00;77.70
19039;DHT22;9652;49.014;12.052;2022-11-18T00:44:35;12.00;77.70
19039;DHT22;9652;49.014;12.052;2022-11-18T00:47:02;12.00;77.70
19039;DHT22;9652;49.014;12.052;2022-11-18T00:49:31;12.00;77.80
19039;DHT22;9652;49.014;12.052;2022-11-18T00:51:58;12.00;77.90
19039;DHT22;9652;49.014;12.052;2022-11-18T00:54:26;12.00;77.90
19039;DHT22;9652;49.014;12.052;2022-11-18T00:56:53;12.00;77.70
19039;DHT22;9652;49.014;12.052;2022-11-18T00:59:33;12.00;77.70
19039;DHT22;9652;49.014;12.052;2022-11-18T01:02:00;12.00;77.70
19039;DHT22;9652;49.014;12.052;2022-11-18T01:04:27;12.00;77.60
19039;DHT22;9652;49.014;12.052;2022-11-18T01:06:56;11.90;77.50
19039;DHT22;9652;49.014;12.052;2022-11-18T01:09:23;12.00;77.50
19039;DHT22;9652;49.014;12.052;2022-11-18T01:11:50;11.90;77.40
19039;DHT22;9652;49.014;12.052;2022-11-18T01:14:35;11.90;77.60
19039;DHT22;9652;49.014;12.052;2022-11-18T01:17:02;11.90;77.60
19039;DHT22;9652;49.014;12.052;2022-11-18T01:19:29;11.90;77.60
19039;DHT22;9652;49.014;12.052;2022-11-18T01:21:58;11.90;77.70
19039;DHT22;9652;49.014;12.052;2022-11-18T01:24:28;11.90;77.70
19039;DHT22;9652;49.014;12.052;2022-11-18T01:26:55;11.90;77.60
19039;DHT22;9652;49.014;12.052;2022-11-18T01:29:22;11.90;77.40
19039;DHT22;9652;49.014;12.052;2022-11-18T01:31:49;11.90;77.40
19039;DHT22;9652;49.014;12.052;2022-11-18T01:34:16;11.90;77.40
19039;DHT22;9652;49.014;12.052;2022-11-18T01:36:44;11.90;77.40
19039;DHT22;9652;49.014;12.052;2022-11-18T01:39:12;11.90;77.30
19039;DHT22;9652;49.014;12.052;2022-11-18T01:41:40;11.90;77.40
19039;DHT22;9652;49.014;12.052;2022-11-18T01:47:31;11.80;77.60
19039;DHT22;9652;49.014;12.052;2022-11-18T01:50:04;11.80;77.50
19039;DHT22;9652;49.014;12.052;2022-11-18T01:52:33;11.80;77.60
19039;DHT22;9652;49.014;12.052;2022-11-18T01:55:06;11.80;77.60
19039;DHT22;9652;49.014;12.052;2022-11-18T01:57:37;11.80;77.60
19039;DHT22;9652;49.014;12.052;2022-11-18T02:00:07;11.80;77.70
19039;DHT22;9652;49.014;12.052;2022-11-18T02:02:36;11.80;77.70
19039;DHT22;9652;49.014;12.052;2022-11-18T02:05:06;11.80;77.70
19039;DHT22;9652;49.014;12.052;2022-11-18T02:07:38;11.80;77.70
19039;DHT22;9652;49.014;12.052;2022-11-18T02:10:16;11.80;77.70
19039;DHT22;9652;49.014;12.052;2022-11-18T02:12:45;11.80;78.60
19039;DHT22;9652;49.014;12.052;2022-11-18T02:15:13;11.80;77.70
19039;DHT22;9652;49.014;12.052;2022-11-18T02:17:46;11.80;77.80
19039;DHT22;9652;49.014;12.052;2022-11-18T02:20:30;11.80;77.90
19039;DHT22;9652;49.014;12.052;2022-11-18T02:23:42;11.80;77.80
19039;DHT22;9652;49.014;12.052;2022-11-18T02:26:50;11.90;77.90
19039;DHT22;9652;49.014;12.052;2022-11-18T02:29:34;11.90;77.90
19039;DHT22;9652;49.014;12.052;2022-11-18T02:32:10;11.90;78.70
19039;DHT22;9652;49.014;12.052;2022-11-18T02:34:47;11.90;77.90
19039;DHT22;9652;49.014;12.052;2022-11-18T02:37:23;11.90;77.90
19039;DHT22;9652;49.014;12.052;2022-11-18T02:40:00;11.90;77.90
19039;DHT22;9652;49.014;12.052;2022-11-18T02:42:32;11.90;77.90
19039;DHT22;9652;49.014;12.052;2022-11-18T02:45:05;11.90;77.90
19039;DHT22;9652;49.014;12.052;2022-11-18T02:47:36;11.90;77.90
19039;DHT22;9652;49.014;12.052;2022-11-18T02:50:07;11.90;77.90
19039;DHT22;9652;49.014;12.052;2022-11-18T02:52:38;12.00;78.80
19039;DHT22;9652;49.014;12.052;2022-11-18T02:55:10;12.00;77.90
19039;DHT22;9652;49.014;12.052;2022-11-18T02:57:41;12.00;77.90
19039;DHT22;9652;49.014;12.052;2022-11-18T03:00:13;12.00;77.70
19039;DHT22;9652;49.014;12.052;2022-11-18T03:02:42;12.00;77.40
19039;DHT22;9652;49.014;12.052;2022-11-18T03:05:15;12.00;77.30
19039;DHT22;9652;49.014;12.052;2022-11-18T03:07:50;11.90;77.20
19039;DHT22;9652;49.014;12.052;2022-11-18T03:10:22;11.90;77.10
19039;DHT22;9652;49.014;12.052;2022-11-18T03:13:01;11.90;77.10
19039;DHT22;9652;49.014;12.052;2022-11-18T03:15:40;11.90;77.00
19039;DHT22;9652;49.014;12.052;2022-11-18T03:18:17;11.90;76.90
19039;DHT22;9652;49.014;12.052;2022-11-18T03:20:53;11.90;76.90
19039;DHT22;9652;49.014;12.052;2022-11-18T03:23:29;11.90;76.90
19039;DHT22;9652;49.014;12.052;2022-11-18T03:26:06;11.80;76.80
19039;DHT22;9652;49.014;12.052;2022-11-18T03:28:41;11.80;76.80
19039;DHT22;9652;49.014;12.052;2022-11-18T03:31:19;11.80;76.90
19039;DHT22;9652;49.014;12.052;2022-11-18T03:33:53;11.80;77.10
19039;DHT22;9652;49.014;12.052;2022-11-18T03:36:27;11.80;77.30
19039;DHT22;9652;49.014;12.052;2022-11-18T03:38:59;11.80;77.40
19039;DHT22;9652;49.014;12.052;2022-11-18T03:41:30;11.80;77.50
19039;DHT22;9652;49.014;12.052;2022-11-18T03:44:05;11.80;77.50
19039;DHT22;9652;49.014;12.052;2022-11-18T03:46:39;11.80;77.40
19039;DHT22;9652;49.014;12.052;2022-11-18T03:49:13;11.80;77.20
19039;DHT22;9652;49.014;12.052;2022-11-18T03:51:51;11.80;77.00
19039;DHT22;9652;49.014;12.052;2022-11-18T03:54:24;11.70;76.60
19039;DHT22;9652;49.014;12.052;2022-11-18T03:56:58;11.70;76.40
19039;DHT22;9652;49.014;12.052;2022-11-18T03:59:30;11.70;76.40
19039;DHT22;9652;49.014;12.052;2022-11-18T04:02:07;11.60;76.40
19039;DHT22;9652;49.014;12.052;2022-11-18T04:04:38;11.70;76.70
19039;DHT22;9652;49.014;12.052;2022-11-18T04:07:10;11.60;76.90
19039;DHT22;9652;49.014;12.052;2022-11-18T04:09:48;11.60;77.30
19039;DHT22;9652;49.014;12.052;2022-11-18T04:12:20;11.60;77.50
19039;DHT22;9652;49.014;12.052;2022-11-18T04:14:53;11.60;77.70
19039;DHT22;9652;49.014;12.052;2022-11-18T04:17:25;11.60;77.80
19039;DHT22;9652;49.014;12.052;2022-11-18T04:19:54;11.60;78.80
19039;DHT22;9652;49.014;12.052;2022-11-18T04:22:21;11.60;77.90
19039;DHT22;9652;49.014;12.052;2022-11-18T04:24:48;11.60;77.90
19039;DHT22;9652;49.014;12.052;2022-11-18T04:27:15;11.70;77.90
19039;DHT22;9652;49.014;12.052;2022-11-18T04:29:43;11.70;77.80
19039;DHT22;9652;49.014;12.052;2022-11-18T04:32:10;11.70;77.70
19039;DHT22;9652;49.014;12.052;2022-11-18T04:34:38;11.70;77.70
19039;DHT22;9652;49.014;12.052;2022-11-18T04:37:05;11.70;77.70
19039;DHT22;9652;49.014;12.052;2022-11-18T04:39:32;11.70;77.40
19039;DHT22;9652;49.014;12.052;2022-11-18T04:41:59;11.70;77.40
19039;DHT22;9652;49.014;12.052;2022-11-18T04:44:28;11.70;77.20
19039;DHT22;9652;49.014;12.052;2022-11-18T04:46:58;11.70;77.20
19039;DHT22;9652;49.014;12.052;2022-11-18T04:49:27;11.70;77.20
19039;DHT22;9652;49.014;12.052;2022-11-18T04:51:56;11.70;77.20
19039;DHT22;9652;49.014;12.052;2022-11-18T04:54:25;11.70;77.20
19039;DHT22;9652;49.014;12.052;2022-11-18T04:56:53;11.70;77.10
19039;DHT22;9652;49.014;12.052;2022-11-18T04:59:23;11.70;77.20
19039;DHT22;9652;49.014;12.052;2022-11-18T05:01:52;11.60;77.10
19039;DHT22;9652;49.014;12.052;2022-11-18T05:04:21;11.60;77.20
19039;DHT22;9652;49.014;12.052;2022-11-18T05:06:49;11.70;77.40
19039;DHT22;9652;49.014;12.052;2022-11-18T05:09:19;11.70;77.40
19039;DHT22;9652;49.014;12.052;2022-11-18T05:11:46;11.70;77.50
19039;DHT22;9652;49.014;12.052;2022-11-18T05:14:31;11.60;77.40
19039;DHT22;9652;49.014;12.052;2022-11-18T05:17:00;11.70;77.40
19039;DHT22;9652;49.014;12.052;2022-11-18T05:19:29;11.70;77.40
19039;DHT22;9652;49.014;12.052;2022-11-18T05:21:57;11.70;77.60
19039;DHT22;9652;49.014;12.052;2022-11-18T05:24:26;11.70;77.60
19039;DHT22;9652;49.014;12.052;2022-11-18T05:26:53;11.70;77.60
19039;DHT22;9652;49.014;12.052;2022-11-18T05:29:21;11.70;77.70
19039;DHT22;9652;49.014;12.052;2022-11-18T05:31:49;11.70;77.60
19039;DHT22;9652;49.014;12.052;2022-11-18T05:34:17;11.70;77.50
19039;DHT22;9652;49.014;12.052;2022-11-18T05:36:45;11.70;77.60
19039;DHT22;9652;49.014;12.052;2022-11-18T05:39:12;11.70;77.60
19039;DHT22;9652;49.014;12.052;2022-11-18T05:41:40;11.70;77.60
19039;DHT22;9652;49.014;12.052;2022-11-18T05:44:25;11.70;78.40
19039;DHT22;9652;49.014;12.052;2022-11-18T05:46:52;11.70;77.60
19039;DHT22;9652;49.014;12.052;2022-11-18T05:49:19;11.70;77.70
19039;DHT22;9652;49.014;12.052;2022-11-18T05:51:46;11.70;77.80
19039;DHT22;9652;49.014;12.052;2022-11-18T05:54:15;11.70;77.70
19039;DHT22;9652;49.014;12.052;2022-11-18T05:56:45;11.70;77.80
19039;DHT22;9652;49.014;12.052;2022-11-18T05:59:12;11.80;78.00
19039;DHT22;9652;49.014;12.052;2022-11-18T06:01:42;11.80;78.10
19039;DHT22;9652;49.014;12.052;2022-11-18T06:04:15;11.80;78.90
19039;DHT22;9652;49.014;12.052;2022-11-18T06:06:47;11.80;78.00
19039;DHT22;9652;49.014;12.052;2022-11-18T06:09:20;11.80;77.90
19039;DHT22;9652;49.014;12.052;2022-11-18T06:11:55;11.80;78.00
19039;DHT22;9652;49.014;12.052;2022-11-18T06:14:28;11.80;78.10
19039;DHT22;9652;49.014;12.052;2022-11-18T06:17:04;11.80;78.20
19039;DHT22;9652;49.014;12.052;2022-11-18T06:19:36;11.80;78.10
19039;DHT22;9652;49.014;12.052;2022-11-18T06:22:04;11.80;78.20
19039;DHT22;9652;49.014;12.052;2022-11-18T06:24:32;11.80;78.30
19039;DHT22;9652;49.014;12.052;2022-11-18T06:27:02;11.70;78.30
19039;DHT22;9652;49.014;12.052;2022-11-18T06:29:30;11.80;79.20
19039;DHT22;9652;49.014;12.052;2022-11-18T06:31:57;11.70;78.30
19039;DHT22;9652;49.014;12.052;2022-11-18T06:34:24;11.80;78.40
19039;DHT22;9652;49.014;12.052;2022-11-18T06:36:51;11.80;78.40
19039;DHT22;9652;49.014;12.052;2022-11-18T06:39:18;11.80;78.40
19039;DHT22;9652;49.014;12.052;2022-11-18T06:41:46;11.80;78.30
19039;DHT22;9652;49.014;12.052;2022-11-18T06:44:14;11.80;78.30
19039;DHT22;9652;49.014;12.052;2022-11-18T06:46:41;11.80;78.30
19039;DHT22;9652;49.014;12.052;2022-11-18T06:49:24;11.80;78.30
19039;DHT22;9652;49.014;12.052;2022-11-18T06:51:53;11.80;78.30
19039;DHT22;9652;49.014;12.052;2022-11-18T06:54:20;11.80;78.20
19039;DHT22;9652;49.014;12.052;2022-11-18T06:56:47;11.80;78.30
19039;DHT22;9652;49.014;12.052;2022-11-18T06:59:16;11.80;78.50
19039;DHT22;9652;49.014;12.052;2022-11-18T07:01:48;11.80;78.60
19039;DHT22;9652;49.014;12.052;2022-11-18T07:04:15;11.80;78.70
19039;DHT22;9652;49.014;12.052;2022-11-18T07:06:43;11.80;78.80
19039;DHT22;9652;49.014;12.052;2022-11-18T07:09:10;11.80;78.90
19039;DHT22;9652;49.014;12.052;2022-11-18T07:11:37;11.80;79.10
19039;DHT22;9652;49.014;12.052;2022-11-18T07:14:05;11.80;79.10
19039;DHT22;9652;49.014;12.052;2022-11-18T07:16:35;11.80;79.10
19039;DHT22;9652;49.014;12.052;2022-11-18T07:19:07;11.90;79.20
19039;DHT22;9652;49.014;12.052;2022-11-18T07:21:36;11.90;79.30
19039;DHT22;9652;49.014;12.052;2022-11-18T07:24:06;11.90;79.20
19039;DHT22;9652;49.014;12.052;2022-11-18T07:26:35;11.90;79.10
19039;DHT22;9652;49.014;12.052;2022-11-18T07:29:02;11.90;79.00
19039;DHT22;9652;49.014;12.052;2022-11-18T07:31:29;11.90;79.20
19039;DHT22;9652;49.014;12.052;2022-11-18T07:33:58;11.90;79.30
19039;DHT22;9652;49.014;12.052;2022-11-18T07:36:27;12.00;79.60
19039;DHT22;9652;49.014;12.052;2022-11-18T07:38:57;12.00;79.60
19039;DHT22;9652;49.014;12.052;2022-11-18T07:41:26;12.00;79.50
19039;DHT22;9652;49.014;12.052;2022-11-18T07:43:56;12.00;79.40
19039;DHT22;9652;49.014;12.052;2022-11-18T07:46:26;12.00;79.50
19039;DHT22;9652;49.014;12.052;2022-11-18T07:48:55;12.00;79.70
19039;DHT22;9652;49.014;12.052;2022-11-18T07:51:26;12.10;80.10
19039;DHT22;9652;49.014;12.052;2022-11-18T07:53:55;12.00;80.30
19039;DHT22;9652;49.014;12.052;2022-11-18T07:56:23;12.10;80.60
19039;DHT22;9652;49.014;12.052;2022-11-18T07:58:52;12.10;80.90
19039;DHT22;9652;49.014;12.052;2022-11-18T08:01:21;12.20;81.20
19039;DHT22;9652;49.014;12.052;2022-11-18T08:03:49;12.20;81.40
19039;DHT22;9652;49.014;12.052;2022-11-18T08:06:18;12.30;81.40
19039;DHT22;9652;49.014;12.052;2022-11-18T08:08:47;12.30;81.40
19039;DHT22;9652;49.014;12.052;2022-11-18T08:11:17;12.40;81.30
19039;DHT22;9652;49.014;12.052;2022-11-18T08:13:45;12.40;81.20
19039;DHT22;9652;49.014;12.052;2022-11-18T08:16:14;12.40;81.20
19039;DHT22;9652;49.014;12.052;2022-11-18T08:18:42;12.40;81.40
19039;DHT22;9652;49.014;12.052;2022-11-18T08:21:10;12.40;81.40
19039;DHT22;9652;49.014;12.052;2022-11-18T08:23:38;12.40;81.40
19039;DHT22;9652;49.014;12.052;2022-11-18T08:26:09;12.50;81.40
19039;DHT22;9652;49.014;12.052;2022-11-18T08:28:38;12.50;81.40
19039;DHT22;9652;49.014;12.052;2022-11-18T08:31:10;12.50;81.50
19039;DHT22;9652;49.014;12.052;2022-11-18T08:33:38;12.50;81.60
19039;DHT22;9652;49.014;12.052;2022-11-18T08:36:07;12.50;81.50
19039;DHT22;9652;49.014;12.052;2022-11-18T08:38:35;12.50;81.60
19039;DHT22;9652;49.014;12.052;2022-11-18T08:41:03;12.50;81.60
19039;DHT22;9652;49.014;12.052;2022-11-18T08:43:33;12.60;81.70
19039;DHT22;9652;49.014;12.052;2022-11-18T08:46:01;12.60;81.70
19039;DHT22;9652;49.014;12.052;2022-11-18T08:48:29;12.60;81.80
19039;DHT22;9652;49.014;12.052;2022-11-18T08:50:56;12.70;81.90
19039;DHT22;9652;49.014;12.052;2022-11-18T08:53:24;12.60;82.10
19039;DHT22;9652;49.014;12.052;2022-11-18T08:55:54;12.70;82.20
19039;DHT22;9652;49.014;12.052;2022-11-18T08:58:22;12.70;82.00
19039;DHT22;9652;49.014;12.052;2022-11-18T09:00:51;12.70;81.80
19039;DHT22;9652;49.014;12.052;2022-11-18T09:03:19;12.70;81.70
19039;DHT22;9652;49.014;12.052;2022-11-18T09:05:46;12.80;81.60
19039;DHT22;9652;49.014;12.052;2022-11-18T09:08:13;12.80;81.60
19039;DHT22;9652;49.014;12.052;2022-11-18T09:10:41;12.70;81.40
19039;DHT22;9652;49.014;12.052;2022-11-18T09:13:08;12.80;81.50
19039;DHT22;9652;49.014;12.052;2022-11-18T09:15:35;12.80;81.60
19039;DHT22;9652;49.014;12.052;2022-11-18T09:18:04;12.70;81.70
19039;DHT22;9652;49.014;12.052;2022-11-18T09:20:31;12.70;81.70
19039;DHT22;9652;49.014;12.052;2022-11-18T09:22:58;12.80;82.60
19039;DHT22;9652;49.014;12.052;2022-11-18T09:25:25;12.70;82.10
19039;DHT22;9652;49.014;12.052;2022-11-18T09:27:52;12.70;82.10
19039;DHT22;9652;49.014;12.052;2022-11-18T09:30:20;12.70;82.00
19039;DHT22;9652;49.014;12.052;2022-11-18T09:32:47;12.80;82.10
19039;DHT22;9652;49.014;12.052;2022-11-18T09:35:16;12.80;82.10
19039;DHT22;9652;49.014;12.052;2022-11-18T09:37:43;12.80;82.20
19039;DHT22;9652;49.014;12.052;2022-11-18T09:40:15;12.80;82.20
19039;DHT22;9652;49.014;12.052;2022-11-18T09:42:53;12.80;82.40
19039;DHT22;9652;49.014;12.052;2022-11-18T09:45:31;12.90;82.50
19039;DHT22;9652;49.014;12.052;2022-11-18T09:48:12;12.90;82.30
19039;DHT22;9652;49.014;12.052;2022-11-18T09:50:43;12.90;82.30
19039;DHT22;9652;49.014;12.052;2022-11-18T09:53:20;12.90;82.10
19039;DHT22;9652;49.014;12.052;2022-11-18T09:55:50;12.90;82.00
19039;DHT22;9652;49.014;12.052;2022-11-18T09:58:24;12.90;81.70
19039;DHT22;9652;49.014;12.052;2022-11-18T10:00:58;12.90;81.30
19039;DHT22;9652;49.014;12.052;2022-11-18T10:03:27;12.90;81.00
19039;DHT22;9652;49.014;12.052;2022-11-18T10:06:02;12.80;80.70
19039;DHT22;9652;49.014;12.052;2022-11-18T10:08:43;12.80;80.80
19039;DHT22;9652;49.014;12.052;2022-11-18T10:11:16;12.70;80.90
19039;DHT22;9652;49.014;12.052;2022-11-18T10:13:54;12.70;81.10
19039;DHT22;9652;49.014;12.052;2022-11-18T10:16:39;12.70;81.40
19039;DHT22;9652;49.014;12.052;2022-11-18T10:19:24;12.60;81.30
19039;DHT22;9652;49.014;12.052;2022-11-18T10:22:09;12.60;81.30
19039;DHT22;9652;49.014;12.052;2022-11-18T10:24:44;12.50;81.30
19039;DHT22;9652;49.014;12.052;2022-11-18T10:27:15;12.50;81.20
19039;DHT22;9652;49.014;12.052;2022-11-18T10:29:43;12.50;81.50
19039;DHT22;9652;49.014;12.052;2022-11-18T10:32:15;12.50;81.80
19039;DHT22;9652;49.014;12.052;2022-11-18T10:34:48;12.50;81.90
19039;DHT22;9652;49.014;12.052;2022-11-18T10:37:27;12.50;81.90
19039;DHT22;9652;49.014;12.052;2022-11-18T10:39:57;12.40;81.90
19039;DHT22;9652;49.014;12.052;2022-11-18T10:42:28;12.40;81.80
19039;DHT22;9652;49.014;12.052;2022-11-18T10:45:15;12.40;82.10
19039;DHT22;9652;49.014;12.052;2022-11-18T10:47:57;12.40;82.20
19039;DHT22;9652;49.014;12.052;2022-11-18T10:50:32;12.40;82.20
19039;DHT22;9652;49.014;12.052;2022-11-18T10:53:04;12.40;82.10
19039;DHT22;9652;49.014;12.052;2022-11-18T10:55:56;12.40;81.90
19039;DHT22;9652;49.014;12.052;2022-11-18T10:58:25;12.40;81.70
19039;DHT22;9652;49.014;12.052;2022-11-18T11:01:04;12.40;81.70
19039;DHT22;9652;49.014;12.052;2022-11-18T11:03:34;12.30;81.50
19039;DHT22;9652;49.014;12.052;2022-11-18T11:06:26;12.40;81.70
19039;DHT22;9652;49.014;12.052;2022-11-18T11:08:59;12.30;82.10
19039;DHT22;9652;49.014;12.052;2022-11-18T11:11:30;12.30;82.00
19039;DHT22;9652;49.014;12.052;2022-11-18T11:14:21;12.30;82.10
19039;DHT22;9652;49.014;12.052;2022-11-18T11:17:05;12.30;82.00
19039;DHT22;9652;49.014;12.052;2022-11-18T11:19:47;12.30;81.90
19039;DHT22;9652;49.014;12.052;2022-11-18T11:22:17;12.30;81.80
19039;DHT22;9652;49.014;12.052;2022-11-18T11:24:46;12.30;81.50
19039;DHT22;9652;49.014;12.052;2022-11-18T11:27:25;12.20;81.50
19039;DHT22;9652;49.014;12.052;2022-11-18T11:30:14;12.20;81.60
19039;DHT22;9652;49.014;12.052;2022-11-18T11:33:18;12.20;81.60
19039;DHT22;9652;49.014;12.052;2022-11-18T11:38:55;12.10;81.30
19039;DHT22;9652;49.014;12.052;2022-11-18T11:41:53;12.10;81.40
19039;DHT22;9652;49.014;12.052;2022-11-18T11:44:38;12.10;81.60
19039;DHT22;9652;49.014;12.052;2022-11-18T11:47:23;12.10;81.70
19039;DHT22;9652;49.014;12.052;2022-11-18T11:50:21;12.10;82.20
19039;DHT22;9652;49.014;12.052;2022-11-18T11:53:04;12.00;82.40
19039;DHT22;9652;49.014;12.052;2022-11-18T11:55:52;12.10;82.60
19039;DHT22;9652;49.014;12.052;2022-11-18T11:58:36;12.10;82.50
19039;DHT22;9652;49.014;12.052;2022-11-18T12:01:19;12.10;82.40
19039;DHT22;9652;49.014;12.052;2022-11-18T12:03:59;12.10;82.50
19039;DHT22;9652;49.014;12.052;2022-11-18T12:06:33;12.10;82.60
19039;DHT22;9652;49.014;12.052;2022-11-18T12:09:04;12.10;82.60
19039;DHT22;9652;49.014;12.052;2022-11-18T12:11:42;12.10;82.70
19039;DHT22;9652;49.014;12.052;2022-11-18T12:14:25;12.10;82.60
19039;DHT22;9652;49.014;12.052;2022-11-18T12:17:00;12.00;82.50
19039;DHT22;9652;49.014;12.052;2022-11-18T12:19:37;12.10;82.30
19039;DHT22;9652;49.014;12.052;2022-11-18T12:22:05;12.00;82.20
19039;DHT22;9652;49.014;12.052;2022-11-18T12:24:35;12.00;82.30
19039;DHT22;9652;49.014;12.052;2022-11-18T12:27:09;12.00;82.40
19039;DHT22;9652;49.014;12.052;2022-11-18T12:29:53;12.00;82.70
19039;DHT22;9652;49.014;12.052;2022-11-18T12:32:27;11.90;82.90
19039;DHT22;9652;49.014;12.052;2022-11-18T12:34:58;11.90;82.90
19039;DHT22;9652;49.014;12.052;2022-11-18T12:40:36;11.90;83.00
19039;DHT22;9652;49.014;12.052;2022-11-18T12:46:47;11.90;82.80
19039;DHT22;9652;49.014;12.052;2022-11-18T12:52:49;11.90;83.50
19039;DHT22;9652;49.014;12.052;2022-11-18T12:55:34;11.90;83.50
19039;DHT22;9652;49.014;12.052;2022-11-18T12:58:21;11.90;83.70
19039;DHT22;9652;49.014;12.052;2022-11-18T13:00:50;11.90;83.80
19039;DHT22;9652;49.014;12.052;2022-11-18T13:03:32;11.90;83.60
19039;DHT22;9652;49.014;12.052;2022-11-18T13:06:11;11.80;83.50
19039;DHT22;9652;49.014;12.052;2022-11-18T13:08:52;11.80;83.70
19039;DHT22;9652;49.014;12.052;2022-11-18T13:11:21;11.80;83.80
19039;DHT22;9652;49.014;12.052;2022-11-18T13:14:14;11.90;84.00
19039;DHT22;9652;49.014;12.052;2022-11-18T13:17:01;11.90;84.00
19039;DHT22;9652;49.014;12.052;2022-11-18T13:19:56;11.80;83.70
19039;DHT22;9652;49.014;12.052;2022-11-18T13:22:23;11.80;83.80
19039;DHT22;9652;49.014;12.052;2022-11-18T13:25:23;11.80;83.80
19039;DHT22;9652;49.014;12.052;2022-11-18T13:27:58;11.80;84.10
19039;DHT22;9652;49.014;12.052;2022-11-18T13:30:36;11.80;84.00
19039;DHT22;9652;49.014;12.052;2022-11-18T13:33:12;11.80;83.90
19039;DHT22;9652;49.014;12.052;2022-11-18T13:35:41;11.80;83.90
19039;DHT22;9652;49.014;12.052;2022-11-18T13:38:19;11.80;84.00
19039;DHT22;9652;49.014;12.052;2022-11-18T13:40:49;11.80;84.10
19039;DHT22;9652;49.014;12.052;2022-11-18T13:43:32;11.80;84.00
19039;DHT22;9652;49.014;12.052;2022-11-18T13:46:02;11.80;84.10
19039;DHT22;9652;49.014;12.052;2022-11-18T13:48:33;11.80;84.30
19039;DHT22;9652;49.014;12.052;2022-11-18T13:51:07;11.80;84.20
19039;DHT22;9652;49.014;12.052;2022-11-18T13:53:36;11.80;84.30
19039;DHT22;9652;49.014;12.052;2022-11-18T13:56:14;11.80;84.20
19039;DHT22;9652;49.014;12.052;2022-11-18T13:58:51;11.80;84.30
19039;DHT22;9652;49.014;12.052;2022-11-18T14:01:22;11.80;84.30
19039;DHT22;9652;49.014;12.052;2022-11-18T14:03:53;11.80;84.40
19039;DHT22;9652;49.014;12.052;2022-11-18T14:06:26;11.80;84.40
19039;DHT22;9652;49.014;12.052;2022-11-18T14:09:06;11.80;84.40
19039;DHT22;9652;49.014;12.052;2022-11-18T14:11:43;11.80;84.70
19039;DHT22;9652;49.014;12.052;2022-11-18T14:14:28;11.80;84.40
19039;DHT22;9652;49.014;12.052;2022-11-18T14:17:18;11.80;84.40
19039;DHT22;9652;49.014;12.052;2022-11-18T14:19:48;11.80;84.50
19039;DHT22;9652;49.014;12.052;2022-11-18T14:22:21;11.80;84.40
19039;DHT22;9652;49.014;12.052;2022-11-18T14:24:54;11.80;84.60
19039;DHT22;9652;49.014;12.052;2022-11-18T14:27:40;11.80;84.70
19039;DHT22;9652;49.014;12.052;2022-11-18T14:30:29;11.80;84.70
19039;DHT22;9652;49.014;12.052;2022-11-18T14:33:12;11.80;84.60
19039;DHT22;9652;49.014;12.052;2022-11-18T14:35:48;11.80;84.50
19039;DHT22;9652;49.014;12.052;2022-11-18T14:38:27;11.80;84.50
19039;DHT22;9652;49.014;12.052;2022-11-18T14:40:58;11.80;84.50
19039;DHT22;9652;49.014;12.052;2022-11-18T14:43:28;11.80;84.50
19039;DHT22;9652;49.014;12.052;2022-11-18T14:45:57;11.80;84.70
19039;DHT22;9652;49.014;12.052;2022-11-18T14:48:27;11.80;84.70
19039;DHT22;9652;49.014;12.052;2022-11-18T14:50:56;11.80;84.80
19039;DHT22;9652;49.014;12.052;2022-11-18T14:53:25;11.80;84.80
19039;DHT22;9652;49.014;12.052;2022-11-18T14:55:56;11.80;84.80
19039;DHT22;9652;49.014;12.052;2022-11-18T14:58:25;11.80;84.90
19039;DHT22;9652;49.014;12.052;2022-11-18T15:00:52;11.80;84.70
19039;DHT22;9652;49.014;12.052;2022-11-18T15:03:19;11.80;84.40
19039;DHT22;9652;49.014;12.052;2022-11-18T15:05:46;11.80;84.50
19039;DHT22;9652;49.014;12.052;2022-11-18T15:08:14;11.80;84.50
19039;DHT22;9652;49.014;12.052;2022-11-18T15:10:43;11.80;84.60
19039;DHT22;9652;49.014;12.052;2022-11-18T15:13:10;11.80;84.50
19039;DHT22;9652;49.014;12.052;2022-11-18T15:15:37;11.80;84.60
19039;DHT22;9652;49.014;12.052;2022-11-18T15:18:04;11.80;84.70
19039;DHT22;9652;49.014;12.052;2022-11-18T15:20:31;11.80;84.70
19039;DHT22;9652;49.014;12.052;2022-11-18T15:22:59;11.80;84.70
19039;DHT22;9652;49.014;12.052;2022-11-18T15:25:26;11.80;84.70
19039;DHT22;9652;49.014;12.052;2022-11-18T15:27:54;11.80;84.70
19039;DHT22;9652;49.014;12.052;2022-11-18T15:30:22;11.80;84.80
19039;DHT22;9652;49.014;12.052;2022-11-18T15:32:49;11.80;84.70
19039;DHT22;9652;49.014;12.052;2022-11-18T15:35:16;11.80;84.70
19039;DHT22;9652;49.014;12.052;2022-11-18T15:37:43;11.80;84.70
19039;DHT22;9652;49.014;12.052;2022-11-18T15:40:10;11.80;84.50
19039;DHT22;9652;49.014;12.052;2022-11-18T15:42:38;11.70;84.50
19039;DHT22;9652;49.014;12.052;2022-11-18T15:45:07;11.70;84.50
19039;DHT22;9652;49.014;12.052;2022-11-18T15:47:34;11.70;84.60
19039;DHT22;9652;49.014;12.052;2022-11-18T15:50:02;11.80;84.70
19039;DHT22;9652;49.014;12.052;2022-11-18T15:52:29;11.80;84.70
19039;DHT22;9652;49.014;12.052;2022-11-18T15:54:56;11.80;84.60
19039;DHT22;9652;49.014;12.052;2022-11-18T15:57:23;11.70;84.50
19039;DHT22;9652;49.014;12.052;2022-11-18T15:59:50;11.70;84.50
19039;DHT22;9652;49.014;12.052;2022-11-18T16:02:19;11.70;84.50
19039;DHT22;9652;49.014;12.052;2022-11-18T16:04:46;11.70;84.70
19039;DHT22;9652;49.014;12.052;2022-11-18T16:07:13;11.70;84.60
19039;DHT22;9652;49.014;12.052;2022-11-18T16:09:40;11.70;84.70
19039;DHT22;9652;49.014;12.052;2022-11-18T16:12:24;11.70;84.50
19039;DHT22;9652;49.014;12.052;2022-11-18T16:15:09;11.70;84.50
19039;DHT22;9652;49.014;12.052;2022-11-18T16:17:56;11.70;84.70
19039;DHT22;9652;49.014;12.052;2022-11-18T16:20:23;11.60;84.80